sensor_id;sensor_type;location;lat;lon;timestamp;temperature;humidity
19809;DHT22;48538;32.784;-96.802;2023-10-31T00:02:20;9.50;99.90
19809;DHT22;48538;32.784;-96.802;2023-10-31T00:04:47;9.40;99.90
19809;DHT22;48538;32.784;-96.802;2023-10-31T00:07:13;9.30;99.90
19809;DHT22;48538;32.784;-96.802;2023-10-31T00:09:40;9.40;99.90
19809;DHT22;48538;32.784;-96.802;2023-10-31T00:12:07;9.50;99.90
19809;DHT22;48538;32.784;-96.802;2023-10-31T00:14:33;9.50;99.90
19809;DHT22;48538;32.784;-96.802;2023-10-31T00:16:59;9.40;99.90
19809;DHT22;48538;32.784;-96.802;2023-10-31T00:19:25;9.30;99.90
19809;DHT22;48538;32.784;-96.802;2023-10-31T00:21:52;9.40;99.90
19809;DHT22;48538;32.784;-96.802;2023-10-31T00:24:18;9.40;99.90
19809;DHT22;48538;32.784;-96.802;2023-10-31T00:26:45;9.40;99.90
19809;DHT22;48538;32.784;-96.802;2023-10-31T00:29:11;9.40;99.90
19809;DHT22;48538;32.784;-96.802;2023-10-31T00:31:37;9.50;99.90
19809;DHT22;48538;32.784;-96.802;2023-10-31T00:34:07;9.50;99.90
19809;DHT22;48538;32.784;-96.802;2023-10-31T00:36:34;9.40;99.90
19809;DHT22;48538;32.784;-96.802;2023-10-31T00:39:00;9.60;99.90
19809;DHT22;48538;32.784;-96.802;2023-10-31T00:41:26;9.60;99.90
19809;DHT22;48538;32.784;-96.802;2023-10-31T00:43:53;9.70;99.90
19809;DHT22;48538;32.784;-96.802;2023-10-31T00:46:19;9.60;99.90
19809;DHT22;48538;32.784;-96.802;2023-10-31T00:48:45;9.60;99.90
19809;DHT22;48538;32.784;-96.802;2023-10-31T00:51:12;9.40;99.90
19809;DHT22;48538;32.784;-96.802;2023-10-31T00:53:38;9.40;99.90
19809;DHT22;48538;32.784;-96.802;2023-10-31T00:56:04;9.50;99.90
19809;DHT22;48538;32.784;-96.802;2023-10-31T00:58:31;9.50;99.90
19809;DHT22;48538;32.784;-96.802;2023-10-31T01:00:58;9.50;99.90
19809;DHT22;48538;32.784;-96.802;2023-10-31T01:03:24;9.50;99.90
19809;DHT22;48538;32.784;-96.802;2023-10-31T01:05:50;9.50;99.90
19809;DHT22;48538;32.784;-96.802;2023-10-31T01:08:17;9.50;99.90
19809;DHT22;48538;32.784;-96.802;2023-10-31T01:10:43;9.60;99.90
19809;DHT22;48538;32.784;-96.802;2023-10-31T01:13:09;9.50;99.90
19809;DHT22;48538;32.784;-96.802;2023-10-31T01:15:35;9.60;99.90
19809;DHT22;48538;32.784;-96.802;2023-10-31T01:18:02;9.60;99.90
19809;DHT22;48538;32.784;-96.802;2023-10-31T01:20:28;9.60;99.90
19809;DHT22;48538;32.784;-96.802;2023-10-31T01:22:54;9.60;99.90
19809;DHT22;48538;32.784;-96.802;2023-10-31T01:25:21;9.60;99.90
19809;DHT22;48538;32.784;-96.802;2023-10-31T01:27:47;9.60;99.90
19809;DHT22;48538;32.784;-96.802;2023-10-31T01:30:13;9.70;99.90
19809;DHT22;48538;32.784;-96.802;2023-10-31T01:32:40;9.60;99.90
19809;DHT22;48538;32.784;-96.802;2023-10-31T01:35:06;9.60;99.90
19809;DHT22;48538;32.784;-96.802;2023-10-31T01:37:33;9.50;99.90
19809;DHT22;48538;32.784;-96.802;2023-10-31T01:39:59;9.50;99.90
19809;DHT22;48538;32.784;-96.802;2023-10-31T01:42:25;9.60;99.90
19809;DHT22;48538;32.784;-96.802;2023-10-31T01:44:52;9.70;99.90
19809;DHT22;48538;32.784;-96.802;2023-10-31T01:47:18;9.80;99.90
19809;DHT22;48538;32.784;-96.802;2023-10-31T01:49:44;9.70;99.90
19809;DHT22;48538;32.784;-96.802;2023-10-31T01:52:11;9.80;99.90
19809;DHT22;48538;32.784;-96.802;2023-10-31T01:54:37;9.70;99.90
19809;DHT22;48538;32.784;-96.802;2023-10-31T01:57:04;9.70;99.90
19809;DHT22;48538;32.784;-96.802;2023-10-31T01:59:31;9.80;99.90
19809;DHT22;48538;32.784;-96.802;2023-10-31T02:01:58;9.70;99.90
19809;DHT22;48538;32.784;-96.802;2023-10-31T02:04:24;9.80;99.90
19809;DHT22;48538;32.784;-96.802;2023-10-31T02:06:51;9.90;99.90
19809;DHT22;48538;32.784;-96.802;2023-10-31T02:09:17;9.70;99.90
19809;DHT22;48538;32.784;-96.802;2023-10-31T02:11:43;9.70;99.90
19809;DHT22;48538;32.784;-96.802;2023-10-31T02:14:10;9.80;99.90
19809;DHT22;48538;32.784;-96.802;2023-10-31T02:16:36;9.60;99.90
19809;DHT22;48538;32.784;-96.802;2023-10-31T02:19:03;9.60;99.90
19809;DHT22;48538;32.784;-96.802;2023-10-31T02:21:30;9.60;99.90
19809;DHT22;48538;32.784;-96.802;2023-10-31T02:24:01;9.60;99.90
19809;DHT22;48538;32.784;-96.802;2023-10-31T02:26:29;9.50;99.90
19809;DHT22;48538;32.784;-96.802;2023-10-31T02:28:56;9.60;99.90
19809;DHT22;48538;32.784;-96.802;2023-10-31T02:31:22;9.40;99.90
19809;DHT22;48538;32.784;-96.802;2023-10-31T02:33:49;9.40;99.90
19809;DHT22;48538;32.784;-96.802;2023-10-31T02:36:15;9.40;99.90
19809;DHT22;48538;32.784;-96.802;2023-10-31T02:38:41;9.40;99.90
19809;DHT22;48538;32.784;-96.802;2023-10-31T02:41:08;9.20;99.90
19809;DHT22;48538;32.784;-96.802;2023-10-31T02:43:34;9.20;99.90
19809;DHT22;48538;32.784;-96.802;2023-10-31T02:46:00;9.20;99.90
19809;DHT22;48538;32.784;-96.802;2023-10-31T02:48:27;9.20;99.90
19809;DHT22;48538;32.784;-96.802;2023-10-31T02:50:53;9.20;99.90
19809;DHT22;48538;32.784;-96.802;2023-10-31T02:53:19;9.10;99.90
19809;DHT22;48538;32.784;-96.802;2023-10-31T02:55:46;9.10;99.90
19809;DHT22;48538;32.784;-96.802;2023-10-31T02:58:12;9.00;99.90
19809;DHT22;48538;32.784;-96.802;2023-10-31T03:00:39;9.00;99.90
19809;DHT22;48538;32.784;-96.802;2023-10-31T03:03:05;9.00;99.90
19809;DHT22;48538;32.784;-96.802;2023-10-31T03:05:31;8.90;99.90
19809;DHT22;48538;32.784;-96.802;2023-10-31T03:07:58;9.00;99.90
19809;DHT22;48538;32.784;-96.802;2023-10-31T03:10:24;8.90;99.90
19809;DHT22;48538;32.784;-96.802;2023-10-31T03:12:50;9.00;99.90
19809;DHT22;48538;32.784;-96.802;2023-10-31T03:15:17;9.00;99.90
19809;DHT22;48538;32.784;-96.802;2023-10-31T03:17:43;8.90;99.90
19809;DHT22;48538;32.784;-96.802;2023-10-31T03:20:10;8.90;99.90
19809;DHT22;48538;32.784;-96.802;2023-10-31T03:22:36;8.90;99.90
19809;DHT22;48538;32.784;-96.802;2023-10-31T03:25:02;8.90;99.90
19809;DHT22;48538;32.784;-96.802;2023-10-31T03:27:29;8.90;99.90
19809;DHT22;48538;32.784;-96.802;2023-10-31T03:29:55;8.90;99.90
19809;DHT22;48538;32.784;-96.802;2023-10-31T03:32:22;8.80;99.90
19809;DHT22;48538;32.784;-96.802;2023-10-31T03:34:48;8.80;99.90
19809;DHT22;48538;32.784;-96.802;2023-10-31T03:37:14;8.80;99.90
19809;DHT22;48538;32.784;-96.802;2023-10-31T03:39:40;8.80;99.90
19809;DHT22;48538;32.784;-96.802;2023-10-31T03:42:07;8.70;99.90
19809;DHT22;48538;32.784;-96.802;2023-10-31T03:44:33;8.70;99.90
19809;DHT22;48538;32.784;-96.802;2023-10-31T03:46:59;8.70;99.90
19809;DHT22;48538;32.784;-96.802;2023-10-31T03:49:25;8.80;99.90
19809;DHT22;48538;32.784;-96.802;2023-10-31T03:51:52;8.80;99.90
19809;DHT22;48538;32.784;-96.802;2023-10-31T03:54:18;8.70;99.90
19809;DHT22;48538;32.784;-96.802;2023-10-31T03:56:44;8.70;99.90
19809;DHT22;48538;32.784;-96.802;2023-10-31T03:59:11;8.60;99.90
19809;DHT22;48538;32.784;-96.802;2023-10-31T04:01:37;8.70;99.90
19809;DHT22;48538;32.784;-96.802;2023-10-31T04:04:03;8.70;99.90
19809;DHT22;48538;32.784;-96.802;2023-10-31T04:06:29;8.70;99.90
19809;DHT22;48538;32.784;-96.802;2023-10-31T04:08:56;8.50;99.90
19809;DHT22;48538;32.784;-96.802;2023-10-31T04:11:22;8.60;99.90
19809;DHT22;48538;32.784;-96.802;2023-10-31T04:13:48;8.60;99.90
19809;DHT22;48538;32.784;-96.802;2023-10-31T04:16:14;8.60;99.90
19809;DHT22;48538;32.784;-96.802;2023-10-31T04:18:41;8.60;99.90
19809;DHT22;48538;32.784;-96.802;2023-10-31T04:21:07;8.50;99.90
19809;DHT22;48538;32.784;-96.802;2023-10-31T04:23:33;8.50;99.90
19809;DHT22;48538;32.784;-96.802;2023-10-31T04:25:59;8.50;99.90
19809;DHT22;48538;32.784;-96.802;2023-10-31T04:28:26;8.50;99.90
19809;DHT22;48538;32.784;-96.802;2023-10-31T04:30:52;8.40;99.90
19809;DHT22;48538;32.784;-96.802;2023-10-31T04:33:18;8.50;99.90
19809;DHT22;48538;32.784;-96.802;2023-10-31T04:35:44;8.40;99.90
19809;DHT22;48538;32.784;-96.802;2023-10-31T04:38:10;8.50;99.90
19809;DHT22;48538;32.784;-96.802;2023-10-31T04:40:37;8.40;99.90
19809;DHT22;48538;32.784;-96.802;2023-10-31T04:43:03;8.40;99.90
19809;DHT22;48538;32.784;-96.802;2023-10-31T04:45:29;8.30;99.90
19809;DHT22;48538;32.784;-96.802;2023-10-31T04:47:55;8.10;99.90
19809;DHT22;48538;32.784;-96.802;2023-10-31T04:50:22;8.30;99.90
19809;DHT22;48538;32.784;-96.802;2023-10-31T04:52:48;8.40;99.90
19809;DHT22;48538;32.784;-96.802;2023-10-31T04:55:14;8.40;99.90
19809;DHT22;48538;32.784;-96.802;2023-10-31T04:57:40;8.40;99.90
19809;DHT22;48538;32.784;-96.802;2023-10-31T05:00:07;8.20;99.90
19809;DHT22;48538;32.784;-96.802;2023-10-31T05:02:34;8.20;99.90
19809;DHT22;48538;32.784;-96.802;2023-10-31T05:05:00;8.10;99.90
19809;DHT22;48538;32.784;-96.802;2023-10-31T05:07:26;8.20;99.90
19809;DHT22;48538;32.784;-96.802;2023-10-31T05:09:53;8.20;99.90
19809;DHT22;48538;32.784;-96.802;2023-10-31T05:12:19;8.10;99.90
19809;DHT22;48538;32.784;-96.802;2023-10-31T05:14:45;8.10;99.90
19809;DHT22;48538;32.784;-96.802;2023-10-31T05:17:11;8.00;99.90
19809;DHT22;48538;32.784;-96.802;2023-10-31T05:19:38;8.10;99.90
19809;DHT22;48538;32.784;-96.802;2023-10-31T05:22:04;8.00;99.90
19809;DHT22;48538;32.784;-96.802;2023-10-31T05:24:30;8.10;99.90
19809;DHT22;48538;32.784;-96.802;2023-10-31T05:26:58;8.10;99.90
19809;DHT22;48538;32.784;-96.802;2023-10-31T05:29:24;8.10;99.90
19809;DHT22;48538;32.784;-96.802;2023-10-31T05:31:50;8.10;99.90
19809;DHT22;48538;32.784;-96.802;2023-10-31T05:34:16;8.10;99.90
19809;DHT22;48538;32.784;-96.802;2023-10-31T05:36:43;8.10;99.90
19809;DHT22;48538;32.784;-96.802;2023-10-31T05:39:09;8.10;99.90
19809;DHT22;48538;32.784;-96.802;2023-10-31T05:41:35;8.00;99.90
19809;DHT22;48538;32.784;-96.802;2023-10-31T05:44:02;7.90;99.90
19809;DHT22;48538;32.784;-96.802;2023-10-31T05:46:28;7.90;99.90
19809;DHT22;48538;32.784;-96.802;2023-10-31T05:48:55;8.00;99.90
19809;DHT22;48538;32.784;-96.802;2023-10-31T05:51:21;7.90;99.90
19809;DHT22;48538;32.784;-96.802;2023-10-31T05:53:48;7.90;99.90
19809;DHT22;48538;32.784;-96.802;2023-10-31T05:56:15;8.00;99.90
19809;DHT22;48538;32.784;-96.802;2023-10-31T05:58:42;8.10;99.90
19809;DHT22;48538;32.784;-96.802;2023-10-31T06:01:08;8.10;99.90
19809;DHT22;48538;32.784;-96.802;2023-10-31T06:03:35;8.10;99.90
19809;DHT22;48538;32.784;-96.802;2023-10-31T06:06:01;8.10;99.90
19809;DHT22;48538;32.784;-96.802;2023-10-31T06:08:27;8.00;99.90
19809;DHT22;48538;32.784;-96.802;2023-10-31T06:10:56;8.00;99.90
19809;DHT22;48538;32.784;-96.802;2023-10-31T06:13:23;8.00;99.90
19809;DHT22;48538;32.784;-96.802;2023-10-31T06:15:51;7.90;99.90
19809;DHT22;48538;32.784;-96.802;2023-10-31T06:18:17;7.90;99.90
19809;DHT22;48538;32.784;-96.802;2023-10-31T06:20:44;7.90;99.90
19809;DHT22;48538;32.784;-96.802;2023-10-31T06:23:10;7.90;99.90
19809;DHT22;48538;32.784;-96.802;2023-10-31T06:25:36;7.90;99.90
19809;DHT22;48538;32.784;-96.802;2023-10-31T06:28:03;7.90;99.90
19809;DHT22;48538;32.784;-96.802;2023-10-31T06:30:29;7.80;99.90
19809;DHT22;48538;32.784;-96.802;2023-10-31T06:32:55;7.80;99.90
19809;DHT22;48538;32.784;-96.802;2023-10-31T06:35:23;7.80;99.90
19809;DHT22;48538;32.784;-96.802;2023-10-31T06:37:52;7.90;99.90
19809;DHT22;48538;32.784;-96.802;2023-10-31T06:40:18;8.00;99.90
19809;DHT22;48538;32.784;-96.802;2023-10-31T06:42:44;7.90;99.90
19809;DHT22;48538;32.784;-96.802;2023-10-31T06:45:11;7.70;99.90
19809;DHT22;48538;32.784;-96.802;2023-10-31T06:47:37;7.70;99.90
19809;DHT22;48538;32.784;-96.802;2023-10-31T06:50:03;7.60;99.90
19809;DHT22;48538;32.784;-96.802;2023-10-31T06:52:30;7.70;99.90
19809;DHT22;48538;32.784;-96.802;2023-10-31T06:54:56;7.70;99.90
19809;DHT22;48538;32.784;-96.802;2023-10-31T06:57:22;7.60;99.90
19809;DHT22;48538;32.784;-96.802;2023-10-31T06:59:48;7.60;99.90
19809;DHT22;48538;32.784;-96.802;2023-10-31T07:02:15;7.60;99.90
19809;DHT22;48538;32.784;-96.802;2023-10-31T07:04:41;7.80;99.90
19809;DHT22;48538;32.784;-96.802;2023-10-31T07:07:07;7.80;99.90
19809;DHT22;48538;32.784;-96.802;2023-10-31T07:09:33;7.80;99.90
19809;DHT22;48538;32.784;-96.802;2023-10-31T07:12:00;7.80;99.90
19809;DHT22;48538;32.784;-96.802;2023-10-31T07:14:26;7.70;99.90
19809;DHT22;48538;32.784;-96.802;2023-10-31T07:16:52;7.70;99.90
19809;DHT22;48538;32.784;-96.802;2023-10-31T07:19:18;7.70;99.90
19809;DHT22;48538;32.784;-96.802;2023-10-31T07:21:45;7.60;99.90
19809;DHT22;48538;32.784;-96.802;2023-10-31T07:24:11;7.60;99.90
19809;DHT22;48538;32.784;-96.802;2023-10-31T07:26:37;7.60;99.90
19809;DHT22;48538;32.784;-96.802;2023-10-31T07:29:03;7.50;99.90
19809;DHT22;48538;32.784;-96.802;2023-10-31T07:31:30;7.50;99.90
19809;DHT22;48538;32.784;-96.802;2023-10-31T07:33:56;7.50;99.90
19809;DHT22;48538;32.784;-96.802;2023-10-31T07:36:22;7.40;99.90
19809;DHT22;48538;32.784;-96.802;2023-10-31T07:38:49;7.30;99.90
19809;DHT22;48538;32.784;-96.802;2023-10-31T07:41:15;7.30;99.90
19809;DHT22;48538;32.784;-96.802;2023-10-31T07:43:41;7.40;99.90
19809;DHT22;48538;32.784;-96.802;2023-10-31T07:46:08;7.40;99.90
19809;DHT22;48538;32.784;-96.802;2023-10-31T07:48:34;7.40;99.90
19809;DHT22;48538;32.784;-96.802;2023-10-31T07:51:00;7.40;99.90
19809;DHT22;48538;32.784;-96.802;2023-10-31T07:53:26;7.40;99.90
19809;DHT22;48538;32.784;-96.802;2023-10-31T07:55:53;7.30;99.90
19809;DHT22;48538;32.784;-96.802;2023-10-31T07:58:19;7.30;99.90
19809;DHT22;48538;32.784;-96.802;2023-10-31T08:00:45;7.40;99.90
19809;DHT22;48538;32.784;-96.802;2023-10-31T08:03:12;7.40;99.90
19809;DHT22;48538;32.784;-96.802;2023-10-31T08:05:39;7.30;99.90
19809;DHT22;48538;32.784;-96.802;2023-10-31T08:08:05;7.30;99.90
19809;DHT22;48538;32.784;-96.802;2023-10-31T08:10:31;7.20;99.90
19809;DHT22;48538;32.784;-96.802;2023-10-31T08:13:00;7.20;99.90
19809;DHT22;48538;32.784;-96.802;2023-10-31T08:15:26;7.10;99.90
19809;DHT22;48538;32.784;-96.802;2023-10-31T08:17:52;7.00;99.90
19809;DHT22;48538;32.784;-96.802;2023-10-31T08:20:18;7.20;99.90
19809;DHT22;48538;32.784;-96.802;2023-10-31T08:22:45;7.30;99.90
19809;DHT22;48538;32.784;-96.802;2023-10-31T08:25:11;7.40;99.90
19809;DHT22;48538;32.784;-96.802;2023-10-31T08:27:38;7.50;99.90
19809;DHT22;48538;32.784;-96.802;2023-10-31T08:30:04;7.50;99.90
19809;DHT22;48538;32.784;-96.802;2023-10-31T08:32:31;7.40;99.90
19809;DHT22;48538;32.784;-96.802;2023-10-31T08:34:57;7.50;99.90
19809;DHT22;48538;32.784;-96.802;2023-10-31T08:37:23;7.50;99.90
19809;DHT22;48538;32.784;-96.802;2023-10-31T08:39:50;7.50;99.90
19809;DHT22;48538;32.784;-96.802;2023-10-31T08:42:16;7.40;99.90
19809;DHT22;48538;32.784;-96.802;2023-10-31T08:44:42;7.40;99.90
19809;DHT22;48538;32.784;-96.802;2023-10-31T08:47:08;7.50;99.90
19809;DHT22;48538;32.784;-96.802;2023-10-31T08:49:35;7.50;99.90
19809;DHT22;48538;32.784;-96.802;2023-10-31T08:52:02;7.30;99.90
19809;DHT22;48538;32.784;-96.802;2023-10-31T08:54:29;7.30;99.90
19809;DHT22;48538;32.784;-96.802;2023-10-31T08:56:56;7.40;99.90
19809;DHT22;48538;32.784;-96.802;2023-10-31T08:59:22;7.50;99.90
19809;DHT22;48538;32.784;-96.802;2023-10-31T09:01:48;7.50;99.90
19809;DHT22;48538;32.784;-96.802;2023-10-31T09:04:15;7.50;99.90
19809;DHT22;48538;32.784;-96.802;2023-10-31T09:06:41;7.50;99.90
19809;DHT22;48538;32.784;-96.802;2023-10-31T09:09:07;7.40;99.90
19809;DHT22;48538;32.784;-96.802;2023-10-31T09:11:36;7.40;99.90
19809;DHT22;48538;32.784;-96.802;2023-10-31T09:14:02;7.40;99.90
19809;DHT22;48538;32.784;-96.802;2023-10-31T09:16:28;7.30;99.90
19809;DHT22;48538;32.784;-96.802;2023-10-31T09:18:54;7.40;99.90
19809;DHT22;48538;32.784;-96.802;2023-10-31T09:21:21;7.30;99.90
19809;DHT22;48538;32.784;-96.802;2023-10-31T09:23:47;7.40;99.90
19809;DHT22;48538;32.784;-96.802;2023-10-31T09:26:13;7.20;99.90
19809;DHT22;48538;32.784;-96.802;2023-10-31T09:28:40;7.30;99.90
19809;DHT22;48538;32.784;-96.802;2023-10-31T09:31:18;7.20;99.90
19809;DHT22;48538;32.784;-96.802;2023-10-31T09:33:45;7.20;99.90
19809;DHT22;48538;32.784;-96.802;2023-10-31T09:36:12;7.10;99.90
19809;DHT22;48538;32.784;-96.802;2023-10-31T09:38:40;7.20;99.90
19809;DHT22;48538;32.784;-96.802;2023-10-31T09:41:07;7.10;99.90
19809;DHT22;48538;32.784;-96.802;2023-10-31T09:43:33;7.10;99.90
19809;DHT22;48538;32.784;-96.802;2023-10-31T09:45:59;7.10;99.90
19809;DHT22;48538;32.784;-96.802;2023-10-31T09:48:26;7.10;99.90
19809;DHT22;48538;32.784;-96.802;2023-10-31T09:50:53;7.00;99.90
19809;DHT22;48538;32.784;-96.802;2023-10-31T09:53:20;6.80;99.90
19809;DHT22;48538;32.784;-96.802;2023-10-31T09:55:49;6.90;99.90
19809;DHT22;48538;32.784;-96.802;2023-10-31T09:58:16;6.90;99.90
19809;DHT22;48538;32.784;-96.802;2023-10-31T10:00:42;6.80;99.90
19809;DHT22;48538;32.784;-96.802;2023-10-31T10:03:09;6.80;99.90
19809;DHT22;48538;32.784;-96.802;2023-10-31T10:05:36;6.70;99.90
19809;DHT22;48538;32.784;-96.802;2023-10-31T10:08:04;6.70;99.90
19809;DHT22;48538;32.784;-96.802;2023-10-31T10:10:30;6.70;99.90
19809;DHT22;48538;32.784;-96.802;2023-10-31T10:12:57;6.60;99.90
19809;DHT22;48538;32.784;-96.802;2023-10-31T10:15:24;6.60;99.90
19809;DHT22;48538;32.784;-96.802;2023-10-31T10:17:51;6.60;99.90
19809;DHT22;48538;32.784;-96.802;2023-10-31T10:20:18;6.50;99.90
19809;DHT22;48538;32.784;-96.802;2023-10-31T10:22:45;6.60;99.90
19809;DHT22;48538;32.784;-96.802;2023-10-31T10:25:16;6.60;99.90
19809;DHT22;48538;32.784;-96.802;2023-10-31T10:27:44;6.50;99.90
19809;DHT22;48538;32.784;-96.802;2023-10-31T10:30:13;6.50;99.90
19809;DHT22;48538;32.784;-96.802;2023-10-31T10:32:40;6.50;99.90
19809;DHT22;48538;32.784;-96.802;2023-10-31T10:35:07;6.60;99.90
19809;DHT22;48538;32.784;-96.802;2023-10-31T10:37:37;6.60;99.90
19809;DHT22;48538;32.784;-96.802;2023-10-31T10:40:08;6.70;99.90
19809;DHT22;48538;32.784;-96.802;2023-10-31T10:42:46;6.50;99.90
19809;DHT22;48538;32.784;-96.802;2023-10-31T10:45:14;6.60;99.90
19809;DHT22;48538;32.784;-96.802;2023-10-31T10:47:46;6.60;99.90
19809;DHT22;48538;32.784;-96.802;2023-10-31T10:50:13;6.80;99.90
19809;DHT22;48538;32.784;-96.802;2023-10-31T10:52:44;6.80;99.90
19809;DHT22;48538;32.784;-96.802;2023-10-31T10:55:24;6.70;99.90
19809;DHT22;48538;32.784;-96.802;2023-10-31T10:58:26;6.70;99.90
19809;DHT22;48538;32.784;-96.802;2023-10-31T11:00:54;6.70;99.90
19809;DHT22;48538;32.784;-96.802;2023-10-31T11:03:22;6.70;99.90
19809;DHT22;48538;32.784;-96.802;2023-10-31T11:05:50;6.60;99.90
19809;DHT22;48538;32.784;-96.802;2023-10-31T11:08:19;6.60;99.90
19809;DHT22;48538;32.784;-96.802;2023-10-31T11:10:46;6.60;99.90
19809;DHT22;48538;32.784;-96.802;2023-10-31T11:13:13;6.60;99.90
19809;DHT22;48538;32.784;-96.802;2023-10-31T11:15:40;6.60;99.90
19809;DHT22;48538;32.784;-96.802;2023-10-31T11:18:07;6.50;99.90
19809;DHT22;48538;32.784;-96.802;2023-10-31T11:20:34;6.50;99.90
19809;DHT22;48538;32.784;-96.802;2023-10-31T11:23:02;6.40;99.90
19809;DHT22;48538;32.784;-96.802;2023-10-31T11:25:32;6.50;99.90
19809;DHT22;48538;32.784;-96.802;2023-10-31T11:28:15;6.50;99.90
19809;DHT22;48538;32.784;-96.802;2023-10-31T11:30:42;6.40;99.90
19809;DHT22;48538;32.784;-96.802;2023-10-31T11:33:13;6.40;99.90
19809;DHT22;48538;32.784;-96.802;2023-10-31T11:35:40;6.40;99.90
19809;DHT22;48538;32.784;-96.802;2023-10-31T11:38:08;6.20;99.90
19809;DHT22;48538;32.784;-96.802;2023-10-31T11:43:15;6.20;99.90
19809;DHT22;48538;32.784;-96.802;2023-10-31T11:45:43;6.30;99.90
19809;DHT22;48538;32.784;-96.802;2023-10-31T11:48:14;6.30;99.90
19809;DHT22;48538;32.784;-96.802;2023-10-31T11:50:40;6.30;99.90
19809;DHT22;48538;32.784;-96.802;2023-10-31T11:53:14;6.20;99.90
19809;DHT22;48538;32.784;-96.802;2023-10-31T11:55:44;6.30;99.90
19809;DHT22;48538;32.784;-96.802;2023-10-31T11:58:20;6.30;99.90
19809;DHT22;48538;32.784;-96.802;2023-10-31T12:00:49;6.30;99.90
19809;DHT22;48538;32.784;-96.802;2023-10-31T12:03:17;6.40;99.90
19809;DHT22;48538;32.784;-96.802;2023-10-31T12:05:57;6.30;99.90
19809;DHT22;48538;32.784;-96.802;2023-10-31T12:08:38;6.40;99.90
19809;DHT22;48538;32.784;-96.802;2023-10-31T12:11:09;6.50;99.90
19809;DHT22;48538;32.784;-96.802;2023-10-31T12:13:41;6.40;99.90
19809;DHT22;48538;32.784;-96.802;2023-10-31T12:16:09;6.50;99.90
19809;DHT22;48538;32.784;-96.802;2023-10-31T12:18:37;6.40;99.90
19809;DHT22;48538;32.784;-96.802;2023-10-31T12:21:06;6.50;99.90
19809;DHT22;48538;32.784;-96.802;2023-10-31T12:23:34;6.50;99.90
19809;DHT22;48538;32.784;-96.802;2023-10-31T12:26:00;6.40;99.90
19809;DHT22;48538;32.784;-96.802;2023-10-31T12:28:26;6.60;99.90
19809;DHT22;48538;32.784;-96.802;2023-10-31T12:30:55;6.50;99.90
19809;DHT22;48538;32.784;-96.802;2023-10-31T12:33:22;6.60;99.90
19809;DHT22;48538;32.784;-96.802;2023-10-31T12:35:55;6.50;99.90
19809;DHT22;48538;32.784;-96.802;2023-10-31T12:38:22;6.60;99.90
19809;DHT22;48538;32.784;-96.802;2023-10-31T12:40:49;6.60;99.90
19809;DHT22;48538;32.784;-96.802;2023-10-31T12:43:16;6.70;99.90
19809;DHT22;48538;32.784;-96.802;2023-10-31T12:45:43;6.80;99.90
19809;DHT22;48538;32.784;-96.802;2023-10-31T12:48:10;6.70;99.90
19809;DHT22;48538;32.784;-96.802;2023-10-31T12:50:38;6.70;99.90
19809;DHT22;48538;32.784;-96.802;2023-10-31T12:53:08;6.70;99.90
19809;DHT22;48538;32.784;-96.802;2023-10-31T12:55:39;6.80;99.90
19809;DHT22;48538;32.784;-96.802;2023-10-31T12:58:06;6.80;99.90
19809;DHT22;48538;32.784;-96.802;2023-10-31T13:00:36;6.60;99.90
19809;DHT22;48538;32.784;-96.802;2023-10-31T13:03:05;6.70;99.90
19809;DHT22;48538;32.784;-96.802;2023-10-31T13:05:32;6.70;99.90
19809;DHT22;48538;32.784;-96.802;2023-10-31T13:08:02;6.50;99.90
19809;DHT22;48538;32.784;-96.802;2023-10-31T13:10:30;6.40;99.90
19809;DHT22;48538;32.784;-96.802;2023-10-31T13:13:00;6.30;99.90
19809;DHT22;48538;32.784;-96.802;2023-10-31T13:15:26;6.30;99.90
19809;DHT22;48538;32.784;-96.802;2023-10-31T13:17:53;6.20;99.90
19809;DHT22;48538;32.784;-96.802;2023-10-31T13:20:20;6.10;99.90
19809;DHT22;48538;32.784;-96.802;2023-10-31T13:22:47;6.10;99.90
19809;DHT22;48538;32.784;-96.802;2023-10-31T13:25:15;5.90;99.90
19809;DHT22;48538;32.784;-96.802;2023-10-31T13:27:43;6.10;99.90
19809;DHT22;48538;32.784;-96.802;2023-10-31T13:30:11;6.00;99.90
19809;DHT22;48538;32.784;-96.802;2023-10-31T13:32:38;6.20;99.90
19809;DHT22;48538;32.784;-96.802;2023-10-31T13:35:07;6.20;99.90
19809;DHT22;48538;32.784;-96.802;2023-10-31T13:37:35;6.10;99.90
19809;DHT22;48538;32.784;-96.802;2023-10-31T13:40:03;6.10;99.90
19809;DHT22;48538;32.784;-96.802;2023-10-31T13:42:29;5.90;99.90
19809;DHT22;48538;32.784;-96.802;2023-10-31T13:44:56;5.80;99.90
19809;DHT22;48538;32.784;-96.802;2023-10-31T13:47:22;5.90;99.90
19809;DHT22;48538;32.784;-96.802;2023-10-31T13:49:48;6.00;99.90
19809;DHT22;48538;32.784;-96.802;2023-10-31T13:52:15;6.10;99.90
19809;DHT22;48538;32.784;-96.802;2023-10-31T13:54:41;6.00;99.90
19809;DHT22;48538;32.784;-96.802;2023-10-31T13:57:07;6.20;99.90
19809;DHT22;48538;32.784;-96.802;2023-10-31T13:59:34;6.20;99.90
19809;DHT22;48538;32.784;-96.802;2023-10-31T14:02:01;6.20;99.90
19809;DHT22;48538;32.784;-96.802;2023-10-31T14:04:27;6.30;99.90
19809;DHT22;48538;32.784;-96.802;2023-10-31T14:06:54;6.40;99.90
19809;DHT22;48538;32.784;-96.802;2023-10-31T14:09:20;6.40;99.90
19809;DHT22;48538;32.784;-96.802;2023-10-31T14:11:47;6.50;99.90
19809;DHT22;48538;32.784;-96.802;2023-10-31T14:14:13;6.60;99.90
19809;DHT22;48538;32.784;-96.802;2023-10-31T14:16:40;6.60;99.90
19809;DHT22;48538;32.784;-96.802;2023-10-31T14:19:07;6.80;99.90
19809;DHT22;48538;32.784;-96.802;2023-10-31T14:21:34;6.90;99.90
19809;DHT22;48538;32.784;-96.802;2023-10-31T14:24:01;6.70;99.90
19809;DHT22;48538;32.784;-96.802;2023-10-31T14:26:30;6.50;99.90
19809;DHT22;48538;32.784;-96.802;2023-10-31T14:28:58;6.70;99.90
19809;DHT22;48538;32.784;-96.802;2023-10-31T14:31:25;6.80;99.90
19809;DHT22;48538;32.784;-96.802;2023-10-31T14:33:52;6.90;99.90
19809;DHT22;48538;32.784;-96.802;2023-10-31T14:36:18;7.00;99.90
19809;DHT22;48538;32.784;-96.802;2023-10-31T14:38:44;7.10;99.90
19809;DHT22;48538;32.784;-96.802;2023-10-31T14:41:10;7.20;99.90
19809;DHT22;48538;32.784;-96.802;2023-10-31T14:43:37;7.30;99.90
19809;DHT22;48538;32.784;-96.802;2023-10-31T14:46:03;7.40;99.90
19809;DHT22;48538;32.784;-96.802;2023-10-31T14:48:30;7.40;99.90
19809;DHT22;48538;32.784;-96.802;2023-10-31T14:50:56;7.40;99.90
19809;DHT22;48538;32.784;-96.802;2023-10-31T14:53:23;7.30;99.90
19809;DHT22;48538;32.784;-96.802;2023-10-31T14:55:49;7.40;99.90
19809;DHT22;48538;32.784;-96.802;2023-10-31T14:58:15;7.30;99.90
19809;DHT22;48538;32.784;-96.802;2023-10-31T15:00:42;7.50;99.90
19809;DHT22;48538;32.784;-96.802;2023-10-31T15:03:08;7.60;99.90
19809;DHT22;48538;32.784;-96.802;2023-10-31T15:05:34;7.60;99.90
19809;DHT22;48538;32.784;-96.802;2023-10-31T15:08:00;7.60;99.90
19809;DHT22;48538;32.784;-96.802;2023-10-31T15:10:27;7.70;99.90
19809;DHT22;48538;32.784;-96.802;2023-10-31T15:12:56;7.50;99.90
19809;DHT22;48538;32.784;-96.802;2023-10-31T15:15:22;7.70;99.90
19809;DHT22;48538;32.784;-96.802;2023-10-31T15:17:50;7.70;99.90